Time;durP1;ratioP1;P1;durP2;ratioP2;P2;SDS_P1;SDS_P2;PMS_P1;PMS_P2;Temp;Humidity;BMP_temperature;BMP_pressure;BME280_temperature;BME280_humidity;BME280_pressure;Samples;Min_cycle;Max_cycle;Signal;HPM_P1;HPM_P2
2022/07/04 00:01:45;;;;;;;2.58;1.13;;;;;;;;;;5054522;28;20599;-85
2022/07/04 00:04:12;;;;;;;1.98;1.30;;;;;;;;;;5053667;28;20230;-85
2022/07/04 00:06:39;;;;;;;2.45;1.10;;;;;;;;;;5053955;28;20702;-86
2022/07/04 00:09:06;;;;;;;1.92;1.30;;;;;;;;;;5053689;28;20284;-85
2022/07/04 00:11:33;;;;;;;1.20;1.13;;;;;;;;;;5053873;28;20246;-85
2022/07/04 00:14:01;;;;;;;1.63;1.40;;;;;;;;;;5053315;28;20246;-85
2022/07/04 00:16:28;;;;;;;1.70;1.25;;;;;;;;;;5054110;28;20677;-85
2022/07/04 00:18:56;;;;;;;1.42;1.10;;;;;;;;;;5053529;28;20586;-85
2022/07/04 00:21:23;;;;;;;1.20;1.02;;;;;;;;;;5053787;28;20230;-85
2022/07/04 00:23:50;;;;;;;1.60;1.50;;;;;;;;;;5053252;28;20237;-85
2022/07/04 00:26:18;;;;;;;1.42;1.33;;;;;;;;;;5053772;28;20226;-85
2022/07/04 00:28:45;;;;;;;3.22;1.52;;;;;;;;;;5053404;28;20283;-86
2022/07/04 00:31:12;;;;;;;1.60;1.50;;;;;;;;;;5053866;28;20237;-86
2022/07/04 00:33:39;;;;;;;1.23;1.20;;;;;;;;;;5053093;28;20233;-85
2022/07/04 00:36:07;;;;;;;1.23;1.20;;;;;;;;;;5053787;28;20205;-86
2022/07/04 00:38:35;;;;;;;1.88;1.10;;;;;;;;;;5053255;28;20237;-85
2022/07/04 00:41:02;;;;;;;1.95;1.27;;;;;;;;;;5053552;28;20258;-85
2022/07/04 00:43:30;;;;;;;1.73;1.30;;;;;;;;;;5052974;28;20678;-85
2022/07/04 00:45:57;;;;;;;1.23;1.20;;;;;;;;;;5053232;28;20230;-85
2022/07/04 00:48:24;;;;;;;1.05;1.05;;;;;;;;;;5052537;28;20210;-85
2022/07/04 00:50:51;;;;;;;1.42;1.30;;;;;;;;;;5053305;28;20316;-85
2022/07/04 00:53:20;;;;;;;1.98;1.40;;;;;;;;;;5052649;28;20214;-85
2022/07/04 00:55:48;;;;;;;1.23;1.13;;;;;;;;;;5048678;28;20198;-85
2022/07/04 00:58:15;;;;;;;2.30;1.40;;;;;;;;;;5022839;28;20222;-85
2022/07/04 01:00:42;;;;;;;2.47;1.70;;;;;;;;;;5041859;28;20261;-85
2022/07/04 01:03:09;;;;;;;1.75;1.23;;;;;;;;;;5052493;28;20232;-86
2022/07/04 01:05:36;;;;;;;1.40;1.30;;;;;;;;;;5040839;28;20223;-86
2022/07/04 01:08:03;;;;;;;2.03;1.40;;;;;;;;;;5023721;28;20206;-86
2022/07/04 01:10:32;;;;;;;1.52;1.42;;;;;;;;;;5032431;28;20242;-85
2022/07/04 01:12:59;;;;;;;1.27;1.08;;;;;;;;;;5033176;28;20241;-85
2022/07/04 01:15:26;;;;;;;1.23;1.13;;;;;;;;;;5032621;28;20242;-85
2022/07/04 01:17:53;;;;;;;1.48;1.25;;;;;;;;;;5033235;28;20835;-85
2022/07/04 01:20:22;;;;;;;1.33;1.25;;;;;;;;;;5032584;28;20238;-85
2022/07/04 01:22:49;;;;;;;1.20;1.10;;;;;;;;;;5033144;28;20206;-85
2022/07/04 01:25:16;;;;;;;4.15;1.30;;;;;;;;;;5032111;28;20243;-86
2022/07/04 01:27:43;;;;;;;1.02;0.98;;;;;;;;;;5032940;28;20222;-85
2022/07/04 01:30:11;;;;;;;1.15;1.10;;;;;;;;;;5032222;28;20265;-86
2022/07/04 01:32:38;;;;;;;1.42;1.33;;;;;;;;;;5032513;28;20213;-85
2022/07/04 01:35:06;;;;;;;1.40;1.30;;;;;;;;;;5032047;28;20325;-85
2022/07/04 01:37:34;;;;;;;2.50;1.48;;;;;;;;;;5032872;28;20203;-85
2022/07/04 01:40:01;;;;;;;1.00;0.90;;;;;;;;;;5032278;28;20238;-85
2022/07/04 01:42:28;;;;;;;2.85;1.20;;;;;;;;;;5032729;28;20218;-85
2022/07/04 01:44:55;;;;;;;2.58;1.58;;;;;;;;;;5032011;28;20230;-85
2022/07/04 01:47:22;;;;;;;1.73;1.10;;;;;;;;;;5032340;28;20703;-85
2022/07/04 01:49:49;;;;;;;1.13;1.13;;;;;;;;;;5031985;28;20285;-85
2022/07/04 01:52:16;;;;;;;1.23;1.20;;;;;;;;;;5032821;28;20213;-86
2022/07/04 01:54:45;;;;;;;1.77;1.10;;;;;;;;;;5032014;28;20238;-85
2022/07/04 01:57:12;;;;;;;2.08;1.35;;;;;;;;;;5032524;28;20210;-85
2022/07/04 02:02:25;;;;;;;3.75;1.23;;;;;;;;;;5012822;28;20191;-85
2022/07/04 02:04:52;;;;;;;2.13;1.35;;;;;;;;;;5012146;28;20242;-85
2022/07/04 02:07:19;;;;;;;1.20;1.10;;;;;;;;;;5012774;28;20250;-85
2022/07/04 02:09:48;;;;;;;1.10;1.10;;;;;;;;;;5012200;28;20243;-85
2022/07/04 02:14:59;;;;;;;1.27;1.17;;;;;;;;;;5012083;28;20234;-85
2022/07/04 02:17:26;;;;;;;1.42;1.10;;;;;;;;;;5012455;28;20215;-86
2022/07/04 02:19:53;;;;;;;2.15;1.00;;;;;;;;;;5011831;28;20242;-85
2022/07/04 02:22:21;;;;;;;1.02;1.02;;;;;;;;;;5011969;28;20212;-85
2022/07/04 02:24:49;;;;;;;2.05;1.23;;;;;;;;;;5011530;28;20606;-85
2022/07/04 02:27:16;;;;;;;3.93;1.33;;;;;;;;;;5011757;28;20234;-85
2022/07/04 02:29:44;;;;;;;2.20;1.30;;;;;;;;;;5012046;28;20231;-85
2022/07/04 02:32:11;;;;;;;1.77;1.20;;;;;;;;;;5012330;28;20203;-85
2022/07/04 02:34:38;;;;;;;1.53;1.43;;;;;;;;;;5011719;28;20243;-85
2022/07/04 02:37:05;;;;;;;1.23;1.13;;;;;;;;;;5012747;28;20582;-85
2022/07/04 02:39:32;;;;;;;1.13;1.13;;;;;;;;;;5011582;28;20246;-85
2022/07/04 02:42:00;;;;;;;1.23;1.13;;;;;;;;;;5011931;28;20292;-85
2022/07/04 02:44:27;;;;;;;1.42;1.30;;;;;;;;;;5012836;28;20235;-85
2022/07/04 02:46:54;;;;;;;1.43;1.33;;;;;;;;;;5015745;28;20227;-85
2022/07/04 02:49:22;;;;;;;1.15;1.10;;;;;;;;;;5015428;28;20235;-85
2022/07/04 02:51:49;;;;;;;1.73;1.23;;;;;;;;;;5015926;28;20238;-85
2022/07/04 02:54:16;;;;;;;2.07;1.10;;;;;;;;;;5015474;28;20243;-85
2022/07/04 02:56:43;;;;;;;1.37;1.33;;;;;;;;;;5016211;28;20338;-85
2022/07/04 02:59:11;;;;;;;1.30;1.30;;;;;;;;;;5015621;28;20235;-86
2022/07/04 03:01:38;;;;;;;1.47;1.17;;;;;;;;;;5015749;28;20239;-85
2022/07/04 03:04:06;;;;;;;1.33;1.23;;;;;;;;;;5015053;28;20729;-85
2022/07/04 03:06:33;;;;;;;1.10;1.10;;;;;;;;;;5015611;28;20730;-85
2022/07/04 03:09:00;;;;;;;1.23;1.13;;;;;;;;;;5015421;28;20612;-85
2022/07/04 03:11:27;;;;;;;1.60;1.33;;;;;;;;;;5052498;22;20241;-81
2022/07/04 03:13:54;;;;;;;1.30;1.30;;;;;;;;;;5050314;28;20234;-81
2022/07/04 03:16:22;;;;;;;1.40;1.30;;;;;;;;;;5059235;28;20208;-82
2022/07/04 03:18:49;;;;;;;1.13;1.13;;;;;;;;;;5058665;28;20230;-82
2022/07/04 03:21:16;;;;;;;2.93;1.50;;;;;;;;;;5069476;28;20229;-82
2022/07/04 03:23:57;;;;;;;1.60;1.50;;;;;;;;;;5062722;28;20597;-82
2022/07/04 03:26:24;;;;;;;1.23;1.20;;;;;;;;;;5063062;28;20328;-81
2022/07/04 03:28:51;;;;;;;1.50;1.40;;;;;;;;;;5061416;28;20225;-81
2022/07/04 03:31:18;;;;;;;1.60;1.43;;;;;;;;;;5061819;28;20237;-82
2022/07/04 03:33:46;;;;;;;2.80;1.63;;;;;;;;;;5060857;28;20236;-82
2022/07/04 03:36:13;;;;;;;1.90;1.70;;;;;;;;;;5062095;28;20207;-82
2022/07/04 03:38:40;;;;;;;3.03;1.40;;;;;;;;;;5067144;28;20240;-83
2022/07/04 03:41:07;;;;;;;1.60;1.50;;;;;;;;;;5063369;28;20226;-82
2022/07/04 03:43:34;;;;;;;4.33;1.60;;;;;;;;;;5058260;28;20234;-81
2022/07/04 03:46:01;;;;;;;1.40;1.30;;;;;;;;;;5058345;28;20233;-81
2022/07/04 03:48:28;;;;;;;3.53;1.50;;;;;;;;;;5057518;28;20241;-82
2022/07/04 03:50:57;;;;;;;1.40;1.40;;;;;;;;;;5058174;28;20233;-82
2022/07/04 03:53:24;;;;;;;1.30;1.20;;;;;;;;;;5058372;28;20217;-81
2022/07/04 03:55:51;;;;;;;4.40;1.70;;;;;;;;;;5057425;28;20202;-81
2022/07/04 03:58:18;;;;;;;2.83;1.40;;;;;;;;;;5057910;28;20213;-82
2022/07/04 04:00:45;;;;;;;2.13;1.30;;;;;;;;;;5058544;28;20226;-82
2022/07/04 04:05:53;;;;;;;1.30;1.20;;;;;;;;;;5060462;28;20205;-81
2022/07/04 04:08:22;;;;;;;2.13;1.60;;;;;;;;;;5058786;28;20191;-81
2022/07/04 04:10:50;;;;;;;3.23;1.53;;;;;;;;;;5060609;28;20234;-82
2022/07/04 04:13:17;;;;;;;2.83;1.77;;;;;;;;;;5072460;28;20244;-83
2022/07/04 04:15:44;;;;;;;1.70;1.60;;;;;;;;;;5068908;28;20214;-81
2022/07/04 04:18:11;;;;;;;2.50;1.53;;;;;;;;;;5054262;28;20209;-81
2022/07/04 04:20:38;;;;;;;2.00;1.60;;;;;;;;;;5054015;28;20237;-81
2022/07/04 04:23:05;;;;;;;1.50;1.40;;;;;;;;;;5054109;28;20214;-81
2022/07/04 04:25:34;;;;;;;2.03;1.43;;;;;;;;;;5054447;28;20205;-81
2022/07/04 04:28:01;;;;;;;1.47;1.37;;;;;;;;;;5054486;28;20211;-81
2022/07/04 04:30:28;;;;;;;1.70;1.60;;;;;;;;;;5053771;28;20241;-81
2022/07/04 04:32:55;;;;;;;1.70;1.60;;;;;;;;;;5054175;28;20570;-81
2022/07/04 04:35:22;;;;;;;4.20;1.53;;;;;;;;;;5056179;28;20234;-81
2022/07/04 04:37:49;;;;;;;2.10;1.63;;;;;;;;;;5055287;28;20202;-81
2022/07/04 04:40:16;;;;;;;4.17;1.70;;;;;;;;;;5054104;28;20234;-81
2022/07/04 04:42:45;;;;;;;2.17;1.60;;;;;;;;;;5054449;28;20224;-82
2022/07/04 04:45:12;;;;;;;1.63;1.53;;;;;;;;;;5053612;28;20234;-81
2022/07/04 04:47:40;;;;;;;1.60;1.50;;;;;;;;;;5054334;28;20233;-82
2022/07/04 04:50:11;;;;;;;1.70;1.40;;;;;;;;;;5055193;28;20316;-81
2022/07/04 04:52:38;;;;;;;1.70;1.60;;;;;;;;;;5055481;28;20206;-81
2022/07/04 04:55:05;;;;;;;1.77;1.53;;;;;;;;;;5054858;28;20862;-82
2022/07/04 04:57:32;;;;;;;1.90;1.80;;;;;;;;;;5055673;28;20228;-82
2022/07/04 05:00:01;;;;;;;2.97;1.73;;;;;;;;;;5054883;28;20241;-82
2022/07/04 05:02:28;;;;;;;2.00;1.77;;;;;;;;;;5055917;28;20214;-81
2022/07/04 05:04:55;;;;;;;2.70;1.77;;;;;;;;;;5055361;28;20585;-81
2022/07/04 05:07:22;;;;;;;2.13;1.90;;;;;;;;;;5056219;28;20237;-81
2022/07/04 05:09:49;;;;;;;2.00;1.77;;;;;;;;;;5056322;28;20242;-81
2022/07/04 05:12:16;;;;;;;2.73;1.97;;;;;;;;;;5055551;28;20237;-81
2022/07/04 05:14:43;;;;;;;1.97;1.87;;;;;;;;;;5054572;28;20727;-80
2022/07/04 05:17:12;;;;;;;4.13;2.00;;;;;;;;;;5055312;28;20565;-80
2022/07/04 05:19:39;;;;;;;1.80;1.70;;;;;;;;;;5055275;28;20704;-80
2022/07/04 05:22:06;;;;;;;3.93;2.27;;;;;;;;;;5055194;28;20233;-81
2022/07/04 05:24:33;;;;;;;4.10;1.90;;;;;;;;;;5054967;28;20237;-79
2022/07/04 05:27:00;;;;;;;1.90;1.80;;;;;;;;;;5055403;28;20233;-80
2022/07/04 05:29:27;;;;;;;4.60;2.10;;;;;;;;;;5056695;28;20244;-80
2022/07/04 05:31:54;;;;;;;1.90;1.80;;;;;;;;;;5056569;28;20237;-80
2022/07/04 05:34:22;;;;;;;4.10;1.83;;;;;;;;;;5055393;28;20234;-80
2022/07/04 05:36:49;;;;;;;2.83;1.93;;;;;;;;;;5056051;28;20217;-80
2022/07/04 05:39:16;;;;;;;2.80;2.10;;;;;;;;;;5055476;28;20238;-80
2022/07/04 05:41:43;;;;;;;7.00;2.20;;;;;;;;;;5056238;28;20229;-80
2022/07/04 05:44:11;;;;;;;1.67;1.57;;;;;;;;;;5055426;28;20249;-80
2022/07/04 05:46:38;;;;;;;2.03;1.70;;;;;;;;;;5056467;28;20245;-80
2022/07/04 05:49:05;;;;;;;1.97;1.80;;;;;;;;;;5056471;28;20233;-80
2022/07/04 05:51:33;;;;;;;1.60;1.50;;;;;;;;;;5055799;28;20230;-80
2022/07/04 05:54:00;;;;;;;2.77;1.90;;;;;;;;;;5055934;28;20237;-81
2022/07/04 05:56:28;;;;;;;1.88;1.77;;;;;;;;;;5056850;28;20213;-80
2022/07/04 05:58:55;;;;;;;1.77;1.58;;;;;;;;;;5055000;28;20260;-80
2022/07/04 06:01:22;;;;;;;2.95;1.70;;;;;;;;;;5042698;28;20229;-80
2022/07/04 06:03:49;;;;;;;1.88;1.67;;;;;;;;;;5047232;28;20283;-81
2022/07/04 06:06:16;;;;;;;1.70;1.60;;;;;;;;;;5076274;28;20205;-80
2022/07/04 06:08:45;;;;;;;4.80;1.70;;;;;;;;;;5074684;28;20233;-81
2022/07/04 06:11:12;;;;;;;4.05;1.58;;;;;;;;;;5075452;28;20233;-80
2022/07/04 06:13:39;;;;;;;1.58;1.45;;;;;;;;;;5074744;28;20236;-82
2022/07/04 06:16:06;;;;;;;2.95;1.50;;;;;;;;;;5075795;28;20212;-80
2022/07/04 06:18:33;;;;;;;2.88;1.50;;;;;;;;;;5077714;28;20240;-80
2022/07/04 06:21:00;;;;;;;3.78;1.50;;;;;;;;;;5081771;28;20240;-81
2022/07/04 06:23:27;;;;;;;2.17;1.65;;;;;;;;;;5079412;28;20225;-82
2022/07/04 06:25:56;;;;;;;1.50;1.40;;;;;;;;;;5079834;28;20209;-81
2022/07/04 06:28:23;;;;;;;1.40;1.30;;;;;;;;;;5079074;28;20221;-82
2022/07/04 06:30:50;;;;;;;1.60;1.50;;;;;;;;;;5078867;28;20229;-81
2022/07/04 06:33:18;;;;;;;3.80;1.48;;;;;;;;;;5078507;28;20202;-81
2022/07/04 06:35:45;;;;;;;1.40;1.30;;;;;;;;;;5079298;28;20216;-81
2022/07/04 06:38:12;;;;;;;4.00;1.42;;;;;;;;;;5079190;28;20223;-80
2022/07/04 06:40:40;;;;;;;2.67;1.45;;;;;;;;;;5079294;28;20254;-81
2022/07/04 06:43:08;;;;;;;1.42;1.20;;;;;;;;;;5078956;28;20201;-80
2022/07/04 06:45:35;;;;;;;3.70;1.38;;;;;;;;;;5078943;28;20292;-81
2022/07/04 06:48:03;;;;;;;1.15;1.05;;;;;;;;;;5079170;28;20227;-81
2022/07/04 06:50:32;;;;;;;1.50;1.10;;;;;;;;;;5079768;28;20229;-81
2022/07/04 06:52:59;;;;;;;1.02;1.02;;;;;;;;;;5079651;28;20566;-81
2022/07/04 06:55:26;;;;;;;1.40;1.30;;;;;;;;;;5078994;28;20233;-80
2022/07/04 06:57:54;;;;;;;1.85;1.00;;;;;;;;;;5079736;28;20201;-81
2022/07/04 07:00:22;;;;;;;0.93;0.85;;;;;;;;;;5081179;28;20233;-81
2022/07/04 07:02:49;;;;;;;3.08;1.27;;;;;;;;;;5084401;28;20255;-81
2022/07/04 07:05:16;;;;;;;1.70;1.02;;;;;;;;;;5080915;28;20237;-81
2022/07/04 07:07:43;;;;;;;0.90;0.90;;;;;;;;;;5081612;28;20229;-81
2022/07/04 07:10:10;;;;;;;2.63;0.80;;;;;;;;;;5080691;28;20233;-80
2022/07/04 07:12:37;;;;;;;1.00;0.80;;;;;;;;;;5081429;28;20205;-80
2022/07/04 07:15:05;;;;;;;1.05;0.82;;;;;;;;;;5080442;28;20244;-81
2022/07/04 07:17:34;;;;;;;0.70;0.63;;;;;;;;;;5079882;28;20684;-81
2022/07/04 07:20:01;;;;;;;1.48;0.85;;;;;;;;;;5079832;28;20240;-81
2022/07/04 07:22:28;;;;;;;0.70;0.70;;;;;;;;;;5080522;28;20208;-81
2022/07/04 07:24:55;;;;;;;4.03;0.88;;;;;;;;;;5079201;28;20233;-81
2022/07/04 07:27:22;;;;;;;1.27;0.90;;;;;;;;;;5079863;28;20226;-82
2022/07/04 07:29:49;;;;;;;1.00;1.00;;;;;;;;;;5080627;28;20308;-81
2022/07/04 07:32:17;;;;;;;0.85;0.57;;;;;;;;;;5079782;28;20228;-81
2022/07/04 07:34:45;;;;;;;0.70;0.70;;;;;;;;;;5079536;28;20290;-81
2022/07/04 07:37:12;;;;;;;1.75;0.80;;;;;;;;;;5080118;28;20205;-81
2022/07/04 07:39:39;;;;;;;2.25;0.80;;;;;;;;;;5079213;28;20230;-81
2022/07/04 07:42:06;;;;;;;1.67;0.90;;;;;;;;;;5078698;28;20214;-81
2022/07/04 07:44:34;;;;;;;2.22;0.70;;;;;;;;;;5080348;28;20237;-81
2022/07/04 07:47:02;;;;;;;0.90;0.70;;;;;;;;;;5081470;28;20213;-81
2022/07/04 07:49:29;;;;;;;2.35;0.88;;;;;;;;;;5079991;28;20975;-81
2022/07/04 07:51:57;;;;;;;1.88;0.80;;;;;;;;;;5080487;28;20579;-80
2022/07/04 07:54:24;;;;;;;3.63;1.10;;;;;;;;;;5079845;28;20630;-81
2022/07/04 07:56:52;;;;;;;0.80;0.73;;;;;;;;;;5079785;28;20205;-81
2022/07/04 07:59:19;;;;;;;1.15;0.95;;;;;;;;;;5079447;28;20229;-81
2022/07/04 08:01:46;;;;;;;2.83;0.80;;;;;;;;;;5080861;28;20225;-82
2022/07/04 08:06:59;;;;;;;0.75;0.57;;;;;;;;;;5078881;28;20247;-82
2022/07/04 08:09:26;;;;;;;1.15;0.60;;;;;;;;;;5078475;28;20249;-82
2022/07/04 08:11:53;;;;;;;1.13;0.60;;;;;;;;;;5079641;28;20733;-81
2022/07/04 08:14:21;;;;;;;1.08;0.70;;;;;;;;;;5077836;28;20241;-82
2022/07/04 08:16:48;;;;;;;0.75;0.75;;;;;;;;;;5078242;28;20202;-81
2022/07/04 08:19:15;;;;;;;1.63;0.80;;;;;;;;;;5077238;28;20236;-81
2022/07/04 08:21:42;;;;;;;1.02;0.60;;;;;;;;;;5078662;28;20225;-81
2022/07/04 08:24:10;;;;;;;1.65;0.70;;;;;;;;;;5076718;28;20244;-81
2022/07/04 08:26:37;;;;;;;1.35;0.63;;;;;;;;;;5078203;28;20209;-81
2022/07/04 08:29:04;;;;;;;0.75;0.70;;;;;;;;;;5078219;28;20244;-81
2022/07/04 08:31:32;;;;;;;0.95;0.90;;;;;;;;;;5078675;28;20221;-81
2022/07/04 08:33:59;;;;;;;1.25;0.75;;;;;;;;;;5077709;28;20241;-81
2022/07/04 08:36:26;;;;;;;1.45;0.82;;;;;;;;;;5078838;28;20202;-82
2022/07/04 08:38:53;;;;;;;0.60;0.60;;;;;;;;;;5077771;28;20236;-81
2022/07/04 08:41:21;;;;;;;0.70;0.70;;;;;;;;;;5079879;28;20217;-82
2022/07/04 08:43:49;;;;;;;0.70;0.70;;;;;;;;;;5096170;28;20288;-82
2022/07/04 08:46:17;;;;;;;1.77;0.95;;;;;;;;;;5098241;28;20201;-82
2022/07/04 08:48:51;;;;;;;1.33;0.80;;;;;;;;;;5083897;28;20704;-82
2022/07/04 08:51:21;;;;;;;1.17;0.68;;;;;;;;;;5079487;28;20248;-82
2022/07/04 08:53:51;;;;;;;1.92;0.88;;;;;;;;;;5081275;28;20240;-82
2022/07/04 08:59:05;;;;;;;1.38;0.75;;;;;;;;;;5081102;28;20231;-81
2022/07/04 09:01:32;;;;;;;2.17;0.80;;;;;;;;;;5092110;28;20208;-82
2022/07/04 09:04:00;;;;;;;1.38;0.80;;;;;;;;;;5097315;28;20228;-82
2022/07/04 09:06:28;;;;;;;1.45;1.17;;;;;;;;;;5096761;28;20181;-82
2022/07/04 09:08:55;;;;;;;2.53;0.80;;;;;;;;;;5096672;28;20233;-82
2022/07/04 09:11:23;;;;;;;2.50;0.80;;;;;;;;;;5093845;28;20236;-82
2022/07/04 09:13:50;;;;;;;0.73;0.70;;;;;;;;;;5089595;28;20235;-83
2022/07/04 09:16:18;;;;;;;3.30;0.90;;;;;;;;;;5089618;28;20208;-83
2022/07/04 09:18:45;;;;;;;0.75;0.73;;;;;;;;;;5076729;28;20229;-83
2022/07/04 09:21:12;;;;;;;1.00;0.90;;;;;;;;;;5073188;28;20307;-82
2022/07/04 09:23:41;;;;;;;2.22;0.95;;;;;;;;;;5072588;28;20259;-83
2022/07/04 09:26:10;;;;;;;0.80;0.55;;;;;;;;;;5073166;28;20232;-82
2022/07/04 09:28:37;;;;;;;0.60;0.60;;;;;;;;;;5072544;28;20241;-82
2022/07/04 09:31:14;;;;;;;2.35;0.70;;;;;;;;;;5073127;28;20224;-82
2022/07/04 09:33:47;;;;;;;1.70;0.80;;;;;;;;;;5072280;28;20735;-83
2022/07/04 09:36:14;;;;;;;0.98;0.80;;;;;;;;;;5072921;28;20205;-82
2022/07/04 09:38:41;;;;;;;1.63;0.50;;;;;;;;;;5072847;28;20242;-83
2022/07/04 09:41:29;;;;;;;0.93;0.77;;;;;;;;;;5072821;28;20233;-82
2022/07/04 09:44:00;;;;;;;0.75;0.70;;;;;;;;;;5072560;28;20319;-82
2022/07/04 09:46:28;;;;;;;1.52;0.65;;;;;;;;;;5072597;28;20252;-82
2022/07/04 09:48:56;;;;;;;1.10;0.68;;;;;;;;;;5072161;28;20244;-83
2022/07/04 09:51:37;;;;;;;1.40;0.73;;;;;;;;;;5072782;28;20229;-82
2022/07/04 09:54:13;;;;;;;0.73;0.73;;;;;;;;;;5071740;28;20233;-82
2022/07/04 09:56:41;;;;;;;0.65;0.65;;;;;;;;;;5073404;28;20593;-82
2022/07/04 09:59:08;;;;;;;2.28;0.70;;;;;;;;;;5072199;28;20256;-83
2022/07/04 10:01:35;;;;;;;1.27;0.82;;;;;;;;;;5073727;28;20225;-83
2022/07/04 10:04:04;;;;;;;1.38;0.50;;;;;;;;;;5072187;28;20583;-83
2022/07/04 10:06:32;;;;;;;1.52;0.50;;;;;;;;;;5072805;28;20236;-83
2022/07/04 10:09:07;;;;;;;1.65;0.52;;;;;;;;;;5071880;28;20240;-83
2022/07/04 10:11:34;;;;;;;1.23;0.80;;;;;;;;;;5072722;28;20366;-83
2022/07/04 10:14:02;;;;;;;0.90;0.75;;;;;;;;;;5071928;28;20239;-83
2022/07/04 10:16:30;;;;;;;1.05;0.43;;;;;;;;;;5072833;28;20205;-83
2022/07/04 10:18:57;;;;;;;0.40;0.40;;;;;;;;;;5083210;28;20237;-83
2022/07/04 10:21:26;;;;;;;0.70;0.70;;;;;;;;;;5077155;28;20236;-83
2022/07/04 10:23:53;;;;;;;1.65;0.70;;;;;;;;;;5075317;28;20297;-83
2022/07/04 10:26:20;;;;;;;2.40;0.85;;;;;;;;;;5074959;28;20207;-83
2022/07/04 10:28:48;;;;;;;1.42;0.77;;;;;;;;;;5074068;28;20300;-83
2022/07/04 10:31:16;;;;;;;1.17;0.80;;;;;;;;;;5074074;28;20229;-83
2022/07/04 10:33:43;;;;;;;0.80;0.73;;;;;;;;;;5074897;28;20263;-83
2022/07/04 10:36:15;;;;;;;1.10;0.80;;;;;;;;;;5075071;28;20205;-82
2022/07/04 10:38:50;;;;;;;1.42;0.77;;;;;;;;;;5073416;28;20308;-83
2022/07/04 10:41:19;;;;;;;0.65;0.65;;;;;;;;;;5073828;28;20224;-83
2022/07/04 10:43:57;;;;;;;0.77;0.70;;;;;;;;;;5072832;28;20236;-83
2022/07/04 10:46:25;;;;;;;0.70;0.70;;;;;;;;;;5073871;28;20209;-83
2022/07/04 10:48:52;;;;;;;1.10;0.63;;;;;;;;;;5072877;28;20233;-83
2022/07/04 10:51:33;;;;;;;3.15;0.70;;;;;;;;;;5072980;28;20214;-83
2022/07/04 10:54:03;;;;;;;1.00;0.70;;;;;;;;;;5072193;28;20264;-83
2022/07/04 10:56:36;;;;;;;0.95;0.70;;;;;;;;;;5072318;28;20212;-83
2022/07/04 10:59:04;;;;;;;1.10;0.85;;;;;;;;;;5072516;28;20312;-83
2022/07/04 11:01:31;;;;;;;0.50;0.50;;;;;;;;;;5072206;28;20232;-83
2022/07/04 11:03:58;;;;;;;0.73;0.63;;;;;;;;;;5071778;28;20233;-83
2022/07/04 11:06:42;;;;;;;0.77;0.77;;;;;;;;;;5073337;28;20227;-83
2022/07/04 11:09:17;;;;;;;2.28;0.95;;;;;;;;;;5060131;28;20237;-83
2022/07/04 11:11:57;;;;;;;1.50;0.80;;;;;;;;;;5075161;28;20236;-83
2022/07/04 11:14:34;;;;;;;2.85;0.80;;;;;;;;;;5074987;28;20599;-83
2022/07/04 11:17:01;;;;;;;0.63;0.63;;;;;;;;;;5075576;28;20212;-83
2022/07/04 11:19:28;;;;;;;1.30;0.77;;;;;;;;;;5075214;28;20610;-83
2022/07/04 11:21:55;;;;;;;0.80;0.80;;;;;;;;;;5076164;28;20227;-83
2022/07/04 11:24:24;;;;;;;2.33;0.73;;;;;;;;;;5074963;28;20650;-83
2022/07/04 11:26:52;;;;;;;2.13;0.73;;;;;;;;;;5075424;28;20673;-83
2022/07/04 11:29:19;;;;;;;0.77;0.77;;;;;;;;;;5075199;28;20232;-83
2022/07/04 11:31:47;;;;;;;1.58;0.63;;;;;;;;;;5075477;28;20705;-83
2022/07/04 11:34:14;;;;;;;1.20;0.85;;;;;;;;;;5074675;28;20232;-83
2022/07/04 11:36:42;;;;;;;1.38;0.65;;;;;;;;;;5074700;28;20672;-83
2022/07/04 11:39:09;;;;;;;1.13;0.88;;;;;;;;;;5074655;28;20239;-83
2022/07/04 11:47:11;;;;;;;0.80;0.63;;;;;;;;;;5075736;28;20319;-83
2022/07/04 11:49:42;;;;;;;2.30;0.80;;;;;;;;;;5077062;28;20259;-83
2022/07/04 11:52:09;;;;;;;5.13;1.10;;;;;;;;;;5078550;28;20225;-83
2022/07/04 11:54:36;;;;;;;1.05;0.68;;;;;;;;;;5077428;28;20228;-83
2022/07/04 11:57:11;;;;;;;1.58;0.95;;;;;;;;;;5076568;28;20208;-84
2022/07/04 11:59:38;;;;;;;1.27;0.98;;;;;;;;;;5077885;28;20240;-83
2022/07/04 12:02:13;;;;;;;8.50;0.85;;;;;;;;;;5077044;28;20225;-83
2022/07/04 12:04:41;;;;;;;2.30;0.70;;;;;;;;;;5076208;28;20255;-83
2022/07/04 12:07:12;;;;;;;2.38;0.90;;;;;;;;;;5076583;28;20232;-83
2022/07/04 12:09:40;;;;;;;2.20;0.70;;;;;;;;;;5075523;28;20229;-83
2022/07/04 12:12:07;;;;;;;2.20;0.80;;;;;;;;;;5075311;28;20243;-83
2022/07/04 12:14:36;;;;;;;0.73;0.60;;;;;;;;;;5075142;28;20243;-83
2022/07/04 12:17:14;;;;;;;2.70;0.75;;;;;;;;;;5076604;28;20208;-83
2022/07/04 12:19:50;;;;;;;4.40;0.88;;;;;;;;;;5076559;28;20224;-83
2022/07/04 12:22:25;;;;;;;2.25;0.60;;;;;;;;;;5076691;28;20250;-83
2022/07/04 12:24:52;;;;;;;2.00;0.80;;;;;;;;;;5080722;28;20614;-83
2022/07/04 12:27:20;;;;;;;1.25;0.60;;;;;;;;;;5078905;28;20231;-83
2022/07/04 12:29:52;;;;;;;1.20;0.80;;;;;;;;;;5079694;28;20229;-83
2022/07/04 12:32:19;;;;;;;0.57;0.45;;;;;;;;;;5078480;28;20237;-83
2022/07/04 12:34:46;;;;;;;0.85;0.57;;;;;;;;;;5080118;28;20239;-83
2022/07/04 12:37:14;;;;;;;0.68;0.45;;;;;;;;;;5079846;28;20212;-83
2022/07/04 12:39:43;;;;;;;0.98;0.70;;;;;;;;;;5078269;28;20247;-83
2022/07/04 12:42:11;;;;;;;1.50;0.80;;;;;;;;;;5078129;28;20316;-83
2022/07/04 12:44:39;;;;;;;0.77;0.63;;;;;;;;;;5079663;28;20793;-83
2022/07/04 12:47:08;;;;;;;1.75;0.73;;;;;;;;;;5079779;28;20205;-83
2022/07/04 12:49:35;;;;;;;1.67;0.50;;;;;;;;;;5079948;28;20616;-83
2022/07/04 12:52:10;;;;;;;0.93;0.60;;;;;;;;;;5081508;28;20225;-82
2022/07/04 12:54:38;;;;;;;1.95;0.80;;;;;;;;;;5078245;28;20242;-83
2022/07/04 12:57:09;;;;;;;0.95;0.57;;;;;;;;;;5081183;28;20669;-83
2022/07/04 12:59:36;;;;;;;0.65;0.50;;;;;;;;;;5079711;28;20240;-83
2022/07/04 13:02:04;;;;;;;0.57;0.57;;;;;;;;;;5086835;28;20228;-83
2022/07/04 13:04:32;;;;;;;0.52;0.43;;;;;;;;;;5087236;28;20242;-83
2022/07/04 13:07:00;;;;;;;1.17;0.60;;;;;;;;;;5086419;28;20575;-83
2022/07/04 13:09:27;;;;;;;0.88;0.50;;;;;;;;;;5080311;28;20229;-83
2022/07/04 13:14:40;;;;;;;1.38;0.73;;;;;;;;;;5081715;28;20278;-83
2022/07/04 13:17:07;;;;;;;0.50;0.43;;;;;;;;;;5081009;28;20208;-83
2022/07/04 13:19:35;;;;;;;0.85;0.50;;;;;;;;;;5082864;28;20278;-83
2022/07/04 13:22:02;;;;;;;0.65;0.55;;;;;;;;;;5080622;28;20232;-83
2022/07/04 13:24:29;;;;;;;0.60;0.60;;;;;;;;;;5078946;28;20716;-83
2022/07/04 13:26:56;;;;;;;0.52;0.50;;;;;;;;;;5080740;28;20213;-83
2022/07/04 13:29:23;;;;;;;1.75;0.90;;;;;;;;;;5078094;28;20228;-83
2022/07/04 13:31:50;;;;;;;1.38;0.70;;;;;;;;;;5078877;28;20225;-83
2022/07/04 13:34:17;;;;;;;0.77;0.40;;;;;;;;;;5081376;28;20240;-83
2022/07/04 13:36:46;;;;;;;0.63;0.52;;;;;;;;;;5079871;28;20205;-83
2022/07/04 13:39:13;;;;;;;0.88;0.50;;;;;;;;;;5080391;28;20239;-83
2022/07/04 13:41:40;;;;;;;2.28;0.63;;;;;;;;;;5082518;28;20229;-83
2022/07/04 13:44:08;;;;;;;1.25;0.25;;;;;;;;;;5081243;28;20229;-82
2022/07/04 13:46:36;;;;;;;0.95;0.65;;;;;;;;;;5085485;28;20653;-83
2022/07/04 13:49:03;;;;;;;2.30;0.60;;;;;;;;;;5077475;28;20316;-83
2022/07/04 13:51:30;;;;;;;1.25;0.50;;;;;;;;;;5080392;28;20228;-83
2022/07/04 13:53:58;;;;;;;1.55;0.63;;;;;;;;;;5082482;28;20723;-83
2022/07/04 13:56:25;;;;;;;1.88;0.68;;;;;;;;;;5084854;28;20205;-83
2022/07/04 13:58:52;;;;;;;0.85;0.40;;;;;;;;;;5082022;28;20307;-83
2022/07/04 14:01:20;;;;;;;1.90;0.60;;;;;;;;;;5081021;28;20758;-83
2022/07/04 14:03:48;;;;;;;1.38;0.65;;;;;;;;;;5082152;28;20224;-82
2022/07/04 14:06:15;;;;;;;0.63;0.60;;;;;;;;;;5080802;28;20200;-82
2022/07/04 14:08:42;;;;;;;0.47;0.47;;;;;;;;;;5081719;28;20232;-83
2022/07/04 14:11:10;;;;;;;1.42;0.40;;;;;;;;;;5080311;28;20251;-82
2022/07/04 14:13:39;;;;;;;0.98;0.52;;;;;;;;;;5077361;28;20233;-83
2022/07/04 14:16:06;;;;;;;0.57;0.40;;;;;;;;;;5080888;28;20209;-82
2022/07/04 14:18:33;;;;;;;0.47;0.40;;;;;;;;;;5078989;28;20233;-82
2022/07/04 14:21:01;;;;;;;0.43;0.43;;;;;;;;;;5080269;28;20237;-83
2022/07/04 14:23:45;;;;;;;1.55;0.50;;;;;;;;;;5079134;28;20703;-82
2022/07/04 14:26:14;;;;;;;0.40;0.40;;;;;;;;;;5079029;28;20205;-82
2022/07/04 14:28:42;;;;;;;0.38;0.38;;;;;;;;;;5076894;28;20311;-82
2022/07/04 14:31:09;;;;;;;0.98;0.32;;;;;;;;;;5078423;28;20237;-82
2022/07/04 14:33:36;;;;;;;0.50;0.40;;;;;;;;;;5077494;28;20225;-82
2022/07/04 14:36:06;;;;;;;2.08;0.40;;;;;;;;;;5078017;28;20209;-82
2022/07/04 14:38:33;;;;;;;0.28;0.28;;;;;;;;;;5076736;28;20228;-82
2022/07/04 14:41:09;;;;;;;2.92;0.60;;;;;;;;;;5080869;28;20233;-82
2022/07/04 14:43:38;;;;;;;3.47;0.55;;;;;;;;;;5082751;28;20239;-82
2022/07/04 14:46:05;;;;;;;0.77;0.45;;;;;;;;;;5083801;28;20208;-82
2022/07/04 14:48:33;;;;;;;3.83;0.40;;;;;;;;;;5084936;28;20240;-82
2022/07/04 14:51:00;;;;;;;1.05;0.47;;;;;;;;;;5086415;28;20255;-82
2022/07/04 14:53:27;;;;;;;0.77;0.50;;;;;;;;;;5083760;28;20233;-82
2022/07/04 14:55:54;;;;;;;0.63;0.57;;;;;;;;;;5082457;28;20204;-82
2022/07/04 14:58:21;;;;;;;1.88;0.50;;;;;;;;;;5081315;28;20228;-82
2022/07/04 15:00:50;;;;;;;0.77;0.40;;;;;;;;;;5081631;28;20697;-82
2022/07/04 15:03:17;;;;;;;0.40;0.40;;;;;;;;;;5081741;28;20201;-82
2022/07/04 15:05:44;;;;;;;0.57;0.40;;;;;;;;;;5082154;28;20209;-81
2022/07/04 15:08:11;;;;;;;1.23;0.47;;;;;;;;;;5082786;28;20217;-82
2022/07/04 15:10:38;;;;;;;3.80;0.45;;;;;;;;;;5083712;28;20693;-82